• Join FlightAware (Why Join?)
  • Login
  • US Flag 
11:37PM EDT


 

Airport Tracker/Info


-or-


 

Live Flight TrackerFlight Track Log ✈ AAL1471 ✈ 01-Sep-2014 ✈ KDFW - KDEN

Flight Track Log - Related Links

Times and Time Zones

All times are in EDT time to prevent confusion due to time zone crossing. See the AAL1471 flight status page for this flight to view local times or setup timezone preferences in your user account.

Time Position Orientation Groundspeed Altitude Reporting Facility
EDT Latitude Longitude Course Direction KTS MPH feet Rate Location/Type
09:57AM 32.8833 -97.0500 321° Northwest 174 200 1,100  Level Dallas / Fort Worth TRACON
09:57AM 32.8667 -97.0500 180° South 174 200 2,300 2,340 Climbing Dallas / Fort Worth TRACON
09:58AM 32.8167 -97.0667 196° South 235 270 4,400 2,400 Climbing Dallas / Fort Worth TRACON
09:59AM 32.7667 -97.1167 220° Southwest 269 310 7,100 2,580 Climbing Dallas / Fort Worth TRACON
10:00AM 32.7667 -97.2000 270° West 296 341 9,700 2,460 Climbing Dallas / Fort Worth TRACON
10:01AM 32.9777 -97.1168 321° Northwest  Level Estimated
10:01AM 32.8167 -97.2667 312° West 317 365 12,100  Level Dallas / Fort Worth TRACON
10:02AM 33.0586 -97.1956 321° Northwest  Level Estimated
10:03AM 32.9544 -97.2739 357° North 367 422 15,000  Level Fort Worth Center
10:04AM 33.0631 -97.2681 North 388 447 17,600 2,460 Climbing Fort Worth Center
10:05AM 33.1828 -97.2631 North 395 455 20,100 2,340 Climbing Fort Worth Center
10:06AM 33.2997 -97.2575 North 418 481 22,400 1,860 Climbing Fort Worth Center
10:07AM 33.4014 -97.2497 North 418 481 24,000 1,680 Climbing Fort Worth Center
10:08AM 33.5483 -97.2367 North 441 507 25,900 1,740 Climbing Fort Worth Center
10:09AM 33.6744 -97.2225 North 454 522 27,600 1,620 Climbing Fort Worth Center
10:10AM 33.8022 -97.2278 358° North 460 529 29,300 1,740 Climbing Fort Worth Center
10:11AM 33.9036 -97.3150 324° Northwest 452 520 31,200 1,620 Climbing Fort Worth Center
10:12AM 33.9908 -97.4158 316° Northwest 442 509 32,700 1,320 Climbing Fort Worth Center
10:13AM 34.0797 -97.5136 318° Northwest 437 503 34,000 1,200 Climbing Fort Worth Center
10:14AM 34.1758 -97.6247 316° Northwest 441 507 35,200 960 Climbing Fort Worth Center
10:15AM 34.2725 -97.7314 318° Northwest 426 490 36,000 360 Climbing Fort Worth Center
10:16AM 34.3483 -97.8161 317° Northwest 420 483 36,000  Level Fort Worth Center
10:17AM 34.4336 -97.9103 318° Northwest 418 481 36,000  Level Fort Worth Center
10:18AM 34.5367 -98.0278 317° Northwest 418 481 36,000  Level Fort Worth Center
10:19AM 34.6222 -98.1208 318° Northwest 415 478 36,000  Level Fort Worth Center
10:20AM 34.7075 -98.2175 317° Northwest 416 479 36,000  Level Fort Worth Center
10:21AM 34.7939 -98.3133 318° Northwest 418 481 36,000  Level Fort Worth Center
10:22AM 34.8783 -98.4108 317° Northwest 418 481 36,000  Level Fort Worth Center
10:23AM 34.9689 -98.5117 318° Northwest 422 486 36,000  Level Fort Worth Center
10:24AM 35.0539 -98.6072 317° Northwest 419 482 36,000  Level Fort Worth Center
10:25AM 35.1378 -98.7047 316° Northwest 417 480 36,000  Level Fort Worth Center
10:26AM 35.2228 -98.8017 317° Northwest 417 480 36,000 -60 Level Fort Worth Center
10:27AM 35.3253 -98.9181 317° Northwest 415 478 35,900  Descending Fort Worth Center
10:28AM 35.4086 -99.0156 316° Northwest 415 478 36,000  Climbing Fort Worth Center
10:30AM 35.4939 -99.1153 316° Northwest 419 482 35,900 -60 Descending Fort Worth Center
10:31AM 35.5775 -99.2119 317° Northwest 414 476 35,900  Level Fort Worth Center
10:32AM 35.6617 -99.3106 316° Northwest 414 476 36,000  Climbing Fort Worth Center
10:33AM 35.7447 -99.4081 316° Northwest 413 475 35,900  Descending Fort Worth Center
10:34AM 35.8281 -99.5058 316° Northwest 412 474 36,000 60 Climbing Fort Worth Center
10:34AM 35.8756 -99.5650 315° West 411 473 36,000  Level Kansas City Center
10:35AM 35.9583 -99.6642 316° Northwest 410 472 36,000  Level Kansas City Center
10:36AM 36.0436 -99.7617 317° Northwest 411 473 36,000  Level Kansas City Center
10:37AM 36.1272 -99.8600 316° Northwest 412 474 36,000  Level Kansas City Center
10:38AM 36.2086 -99.9586 316° Northwest 412 474 36,000  Level Kansas City Center
10:39AM 36.2889 -100.0558 316° Northwest 408 470 36,000  Level Kansas City Center
10:40AM 36.3681 -100.1525 315° West 402 463 36,000  Level Kansas City Center
10:41AM 36.4492 -100.2489 316° Northwest 401 461 36,000  Level Kansas City Center
10:42AM 36.5311 -100.3447 317° Northwest 402 463 36,000  Level Kansas City Center
10:43AM 36.6217 -100.4550 316° Northwest 402 463 36,000  Level Kansas City Center
10:44AM 36.6986 -100.5483 316° Northwest 402 463 36,000  Level Kansas City Center
10:45AM 36.7878 -100.6572 316° Northwest 402 463 36,000  Level Kansas City Center
10:46AM 36.8656 -100.7528 316° Northwest 404 465 36,000  Level Kansas City Center
10:47AM 36.9422 -100.8461 316° Northwest 404 465 36,000  Level Kansas City Center
10:48AM 37.0311 -100.9558 315° West 403 464 36,000  Level Kansas City Center
10:49AM 37.1028 -101.0553 312° West 402 463 36,000  Level Kansas City Center
10:51AM 37.1719 -101.1572 310° West 402 463 36,000  Level Kansas City Center
10:52AM 37.2531 -101.2753 311° West 402 463 36,000  Level Kansas City Center
10:53AM 37.3231 -101.3772 311° West 401 461 36,000  Level Kansas City Center
10:54AM 37.3914 -101.4792 310° West 401 461 36,000  Level Kansas City Center
10:55AM 37.4717 -101.5967 311° West 398 458 36,000  Level Kansas City Center
10:56AM 37.5394 -101.6983 310° West 396 456 36,000  Level Kansas City Center
10:57AM 37.6192 -101.8147 311° West 396 456 36,000  Level Kansas City Center
10:58AM 37.6867 -101.9169 310° West 395 455 36,000  Level Kansas City Center
10:59AM 37.7550 -102.0194 310° West 395 455 36,000  Level Kansas City Center
11:00AM 37.8353 -102.1378 311° West 396 456 36,000  Level Kansas City Center
11:01AM 37.8919 -102.2228 310° West 396 456 36,000  Level Denver Center
11:02AM 37.9603 -102.3250 310° West 396 456 36,000  Level Denver Center
11:03AM 38.0389 -102.4467 309° West 400 460 36,000 -60 Level Denver Center
11:04AM 38.1069 -102.5494 310° West 399 459 35,900 -900 Descending Denver Center
11:05AM 38.1850 -102.6700 310° West 397 457 34,200 -1,500 Descending Denver Center
11:06AM 38.2553 -102.7739 311° West 400 460 32,900 -1,260 Descending Denver Center
11:07AM 38.3364 -102.8953 310° West 405 466 31,600 -1,320 Descending Denver Center
11:08AM 38.4069 -102.9981 311° West 402 463 30,200 -780 Descending Denver Center
11:09AM 38.4881 -103.1208 310° West 403 464 30,000 -1,140 Descending Denver Center
11:10AM 38.5569 -103.2269 310° West 404 465 27,900 -1,680 Descending Denver Center
11:11AM 38.6378 -103.3461 311° West 410 472 26,600 -1,080 Descending Denver Center
11:12AM 38.7142 -103.4631 310° West 408 470 25,700 -840 Descending Denver Center
11:13AM 38.7844 -103.5706 310° West 398 458 24,900 -840 Descending Denver Center
11:14AM 38.8544 -103.6667 313° West 397 457 24,000 -1,560 Descending Denver Center
11:15AM 38.9522 -103.7719 320° Northwest 383 441 21,700 -1,860 Descending Denver Center
11:16AM 39.0303 -103.8608 319° Northwest 379 436 20,200 -1,800 Descending Denver Center
11:17AM 39.1067 -103.9494 318° Northwest 376 433 18,000 -1,500 Descending Denver Center
11:18AM 39.1775 -104.0289 319° Northwest 350 403 17,100 -720 Descending Denver Center
11:19AM 39.2442 -104.1078 318° Northwest 297 342 16,600 -1,200 Descending Denver Center
11:20AM 39.3100 -104.1650 326° Northwest 286 329 14,700 -1,560 Descending Denver Center
11:21AM 39.3792 -104.2342 322° Northwest 291 335 13,400 -840 Descending Denver Center
11:22AM 39.4439 -104.2972 323° Northwest 291 335 13,000 -240 Descending Denver Center
11:23AM 39.5086 -104.3600 323° Northwest 291 335 13,000  Level Denver Center
11:24AM 39.5842 -104.4189 329° Northwest 279 321 13,000  Level Denver Center
11:25AM 39.6600 -104.4628 336° Northwest 295 339 13,000  Level Denver Center
11:26AM 39.7417 -104.5097 336° Northwest 297 342 13,000 -480 Level Denver Center
11:27AM 39.8253 -104.5189 355° North 304 350 12,100 -960 Descending Denver Center
11:28AM 39.9133 -104.5264 356° North 300 345 11,100 -1,020 Descending Denver Center
11:30AM 39.9828 -104.5314 357° North 255 293 10,100 -1,260 Descending Denver Center
11:31AM 40.0533 -104.5442 352° North 243 280 8,500 -1,500 Descending Denver Center
11:32AM 40.0681 -104.6222 284° West 234 269 7,000 -780 Descending Denver Center
11:33AM 40.0283 -104.6778 227° Southwest 203 234 7,000 -180 Level Denver Center
11:34AM 39.9806 -104.6858 187° South 176 203 6,700 -480 Descending Denver Center
11:35AM 39.9369 -104.6864 181° South 144 166 6,100 -660 Descending Denver Center
11:36AM 39.9014 -104.6867 180° South 132 152 5,400 -720 Descending Denver Center